sensor_id;sensor_type;location;lat;lon;timestamp;pressure;altitude;pressure_sealevel;temperature;humidity
70684;BME280;58263;48.146;11.440;2022-09-28T00:00:38;94267.38;;;9.37;80.24
70684;BME280;58263;48.146;11.440;2022-09-28T00:03:08;94260.41;;;9.36;81.35
70684;BME280;58263;48.146;11.440;2022-09-28T00:05:33;94258.81;;;9.40;80.55
70684;BME280;58263;48.146;11.440;2022-09-28T00:07:59;94261.72;;;9.34;80.08
70684;BME280;58263;48.146;11.440;2022-09-28T00:10:24;94249.97;;;9.35;79.84
70684;BME280;58263;48.146;11.440;2022-09-28T00:12:51;94242.22;;;9.38;79.78
70684;BME280;58263;48.146;11.440;2022-09-28T00:15:17;94240.56;;;9.32;80.15
70684;BME280;58263;48.146;11.440;2022-09-28T00:17:43;94235.53;;;9.36;81.13
70684;BME280;58263;48.146;11.440;2022-09-28T00:20:09;94236.28;;;9.31;79.99
70684;BME280;58263;48.146;11.440;2022-09-28T00:22:35;94238.47;;;9.34;80.49
70684;BME280;58263;48.146;11.440;2022-09-28T00:25:01;94228.84;;;9.38;80.61
70684;BME280;58263;48.146;11.440;2022-09-28T00:27:26;94219.44;;;9.30;79.81
70684;BME280;58263;48.146;11.440;2022-09-28T00:29:51;94215.97;;;9.35;80.49
70684;BME280;58263;48.146;11.440;2022-09-28T00:32:17;94209.81;;;9.35;80.35
70684;BME280;58263;48.146;11.440;2022-09-28T00:34:43;94207.44;;;9.38;79.27
70684;BME280;58263;48.146;11.440;2022-09-28T00:37:13;94196.47;;;9.40;80.13
70684;BME280;58263;48.146;11.440;2022-09-28T00:39:39;94188.38;;;9.29;79.62
70684;BME280;58263;48.146;11.440;2022-09-28T00:44:46;94183.84;;;9.35;79.81
70684;BME280;58263;48.146;11.440;2022-09-28T00:50:18;94179.09;;;9.42;79.49
70684;BME280;58263;48.146;11.440;2022-09-28T00:52:50;94182.78;;;9.36;79.46
70684;BME280;58263;48.146;11.440;2022-09-28T00:55:57;94183.34;;;9.38;79.35
70684;BME280;58263;48.146;11.440;2022-09-28T00:58:34;94174.78;;;9.36;78.91
70684;BME280;58263;48.146;11.440;2022-09-28T01:01:00;94164.31;;;9.24;78.31
70684;BME280;58263;48.146;11.440;2022-09-28T01:03:27;94162.66;;;9.18;78.67
70684;BME280;58263;48.146;11.440;2022-09-28T01:05:55;94156.47;;;9.07;78.49
70684;BME280;58263;48.146;11.440;2022-09-28T01:08:22;94143.34;;;9.06;78.33
70684;BME280;58263;48.146;11.440;2022-09-28T01:10:49;94144.19;;;9.11;78.48
70684;BME280;58263;48.146;11.440;2022-09-28T01:13:16;94144.69;;;9.08;78.79
70684;BME280;58263;48.146;11.440;2022-09-28T01:21:09;94137.72;;;9.02;78.86
70684;BME280;58263;48.146;11.440;2022-09-28T01:24:03;94129.94;;;9.01;77.92
70684;BME280;58263;48.146;11.440;2022-09-28T01:26:54;94135.81;;;8.98;78.32
70684;BME280;58263;48.146;11.440;2022-09-28T01:32:24;94109.25;;;8.80;77.86
70684;BME280;58263;48.146;11.440;2022-09-28T01:34:56;94112.53;;;8.93;78.37
70684;BME280;58263;48.146;11.440;2022-09-28T01:37:26;94100.25;;;8.92;78.96
70684;BME280;58263;48.146;11.440;2022-09-28T01:39:55;94098.63;;;8.91;78.29
70684;BME280;58263;48.146;11.440;2022-09-28T01:42:26;94102.66;;;8.93;78.42
70684;BME280;58263;48.146;11.440;2022-09-28T01:44:56;94087.41;;;8.94;77.90
70684;BME280;58263;48.146;11.440;2022-09-28T01:47:26;94075.66;;;9.00;78.23
70684;BME280;58263;48.146;11.440;2022-09-28T01:50:13;94074.34;;;9.03;78.57
70684;BME280;58263;48.146;11.440;2022-09-28T01:52:45;94070.56;;;8.93;77.81
70684;BME280;58263;48.146;11.440;2022-09-28T01:55:37;94057.47;;;8.92;78.18
70684;BME280;58263;48.146;11.440;2022-09-28T01:58:29;94057.16;;;8.88;78.27
70684;BME280;58263;48.146;11.440;2022-09-28T02:01:02;94040.31;;;8.93;78.22
70684;BME280;58263;48.146;11.440;2022-09-28T02:03:39;94048.91;;;8.95;77.58
70684;BME280;58263;48.146;11.440;2022-09-28T02:06:36;94036.06;;;8.97;78.77
70684;BME280;58263;48.146;11.440;2022-09-28T02:09:08;94018.41;;;9.01;77.56
70684;BME280;58263;48.146;11.440;2022-09-28T02:11:37;94022.72;;;9.07;77.11
70684;BME280;58263;48.146;11.440;2022-09-28T02:14:11;94020.03;;;9.02;76.79
70684;BME280;58263;48.146;11.440;2022-09-28T02:16:46;94015.75;;;8.96;76.89
70684;BME280;58263;48.146;11.440;2022-09-28T02:19:23;94015.50;;;9.08;77.67
70684;BME280;58263;48.146;11.440;2022-09-28T02:21:55;94008.00;;;8.94;76.85
70684;BME280;58263;48.146;11.440;2022-09-28T02:24:36;93993.84;;;8.99;77.14
70684;BME280;58263;48.146;11.440;2022-09-28T02:27:09;94000.00;;;9.10;77.67
70684;BME280;58263;48.146;11.440;2022-09-28T02:29:36;93991.69;;;9.01;77.44
70684;BME280;58263;48.146;11.440;2022-09-28T02:32:01;93986.09;;;9.13;77.20
70684;BME280;58263;48.146;11.440;2022-09-28T02:34:27;93987.97;;;9.07;76.19
70684;BME280;58263;48.146;11.440;2022-09-28T02:36:52;93978.06;;;9.03;77.95
70684;BME280;58263;48.146;11.440;2022-09-28T02:39:18;93975.66;;;8.96;77.08
70684;BME280;58263;48.146;11.440;2022-09-28T02:42:06;93975.66;;;9.11;76.53
70684;BME280;58263;48.146;11.440;2022-09-28T02:45:09;93967.38;;;9.03;76.88
70684;BME280;58263;48.146;11.440;2022-09-28T02:58:34;93950.47;;;8.87;77.39
70684;BME280;58263;48.146;11.440;2022-09-28T03:03:45;93940.31;;;8.89;76.94
70684;BME280;58263;48.146;11.440;2022-09-28T03:06:27;93925.88;;;8.90;76.70
70684;BME280;58263;48.146;11.440;2022-09-28T03:09:22;93931.78;;;8.92;77.14
70684;BME280;58263;48.146;11.440;2022-09-28T03:11:57;93923.22;;;8.95;76.78
70684;BME280;58263;48.146;11.440;2022-09-28T03:14:23;93920.53;;;8.90;76.62
70684;BME280;58263;48.146;11.440;2022-09-28T03:16:48;93923.75;;;8.92;76.26
70684;BME280;58263;48.146;11.440;2022-09-28T03:19:15;93923.50;;;8.99;76.16
70684;BME280;58263;48.146;11.440;2022-09-28T03:21:41;93932.31;;;8.94;76.32
70684;BME280;58263;48.146;11.440;2022-09-28T03:24:07;93929.13;;;8.92;75.97
70684;BME280;58263;48.146;11.440;2022-09-28T03:26:35;93928.03;;;8.88;76.45
70684;BME280;58263;48.146;11.440;2022-09-28T03:29:01;93923.97;;;8.75;75.75
70684;BME280;58263;48.146;11.440;2022-09-28T03:31:26;93920.78;;;8.83;76.25
70684;BME280;58263;48.146;11.440;2022-09-28T03:33:51;93922.13;;;8.80;76.13
70684;BME280;58263;48.146;11.440;2022-09-28T03:36:17;93914.66;;;8.83;76.02
70684;BME280;58263;48.146;11.440;2022-09-28T03:38:42;93917.06;;;8.89;76.45
70684;BME280;58263;48.146;11.440;2022-09-28T03:41:07;93911.47;;;8.91;76.79
70684;BME280;58263;48.146;11.440;2022-09-28T03:43:33;93910.91;;;8.94;76.28
70684;BME280;58263;48.146;11.440;2022-09-28T03:46:00;93901.03;;;8.94;75.93
70684;BME280;58263;48.146;11.440;2022-09-28T03:48:27;93909.84;;;8.90;75.69
70684;BME280;58263;48.146;11.440;2022-09-28T03:50:55;93900.22;;;8.89;76.26
70684;BME280;58263;48.146;11.440;2022-09-28T03:53:20;93905.84;;;8.92;75.62
70684;BME280;58263;48.146;11.440;2022-09-28T03:55:45;93903.19;;;8.98;75.27
70684;BME280;58263;48.146;11.440;2022-09-28T03:58:11;93907.19;;;8.95;77.21
70684;BME280;58263;48.146;11.440;2022-09-28T04:00:37;93902.91;;;8.99;77.09
70684;BME280;58263;48.146;11.440;2022-09-28T04:03:02;93893.81;;;9.00;77.52
70684;BME280;58263;48.146;11.440;2022-09-28T04:05:28;93899.16;;;9.00;77.17
70684;BME280;58263;48.146;11.440;2022-09-28T04:07:53;93896.22;;;8.96;77.59
70684;BME280;58263;48.146;11.440;2022-09-28T04:10:21;93893.03;;;8.94;77.48
70684;BME280;58263;48.146;11.440;2022-09-28T04:12:47;93891.41;;;9.04;77.31
70684;BME280;58263;48.146;11.440;2022-09-28T04:15:13;93881.78;;;9.03;78.16
70684;BME280;58263;48.146;11.440;2022-09-28T04:17:39;93879.66;;;9.05;77.71
70684;BME280;58263;48.146;11.440;2022-09-28T04:20:05;93875.13;;;9.05;76.46
70684;BME280;58263;48.146;11.440;2022-09-28T04:22:31;93877.50;;;8.96;77.08
70684;BME280;58263;48.146;11.440;2022-09-28T04:24:57;93876.69;;;9.06;77.22
70684;BME280;58263;48.146;11.440;2022-09-28T04:27:22;93880.97;;;9.02;76.97
70684;BME280;58263;48.146;11.440;2022-09-28T04:30:07;93882.03;;;9.06;78.14
70684;BME280;58263;48.146;11.440;2022-09-28T04:32:32;93887.66;;;9.00;77.41
70684;BME280;58263;48.146;11.440;2022-09-28T04:34:57;93879.38;;;8.91;77.02
70684;BME280;58263;48.146;11.440;2022-09-28T04:37:23;93868.97;;;8.94;76.12
70684;BME280;58263;48.146;11.440;2022-09-28T04:39:48;93875.63;;;8.87;76.38
70684;BME280;58263;48.146;11.440;2022-09-28T04:42:13;93876.16;;;8.94;77.50
70684;BME280;58263;48.146;11.440;2022-09-28T04:44:39;93875.09;;;8.95;76.64
70684;BME280;58263;48.146;11.440;2022-09-28T04:47:04;93870.28;;;9.02;77.17
70684;BME280;58263;48.146;11.440;2022-09-28T04:49:29;93870.03;;;8.99;77.85
70684;BME280;58263;48.146;11.440;2022-09-28T04:51:55;93877.78;;;9.00;76.52
70684;BME280;58263;48.146;11.440;2022-09-28T04:54:20;93881.53;;;9.09;77.31
70684;BME280;58263;48.146;11.440;2022-09-28T04:56:45;93890.06;;;9.11;77.04
70684;BME280;58263;48.146;11.440;2022-09-28T04:59:11;93894.63;;;9.01;77.18
70684;BME280;58263;48.146;11.440;2022-09-28T05:01:37;93894.91;;;9.04;77.72
70684;BME280;58263;48.146;11.440;2022-09-28T05:04:02;93890.34;;;9.05;76.76
70684;BME280;58263;48.146;11.440;2022-09-28T05:06:28;93901.56;;;9.02;77.29
70684;BME280;58263;48.146;11.440;2022-09-28T05:08:54;93899.16;;;8.95;77.79
70684;BME280;58263;48.146;11.440;2022-09-28T05:11:21;93892.22;;;8.99;78.01
70684;BME280;58263;48.146;11.440;2022-09-28T05:13:47;93889.00;;;8.87;77.93
70684;BME280;58263;48.146;11.440;2022-09-28T05:16:14;93893.56;;;8.86;78.55
70684;BME280;58263;48.146;11.440;2022-09-28T05:18:40;93879.09;;;8.87;78.43
70684;BME280;58263;48.146;11.440;2022-09-28T05:21:14;93872.16;;;8.86;78.13
70684;BME280;58263;48.146;11.440;2022-09-28T05:23:40;93877.22;;;8.83;78.96
70684;BME280;58263;48.146;11.440;2022-09-28T05:26:05;93867.06;;;8.79;79.43
70684;BME280;58263;48.146;11.440;2022-09-28T05:28:32;93866.78;;;8.76;79.11
70684;BME280;58263;48.146;11.440;2022-09-28T05:30:58;93859.28;;;8.78;79.08
70684;BME280;58263;48.146;11.440;2022-09-28T05:33:25;93861.97;;;8.78;79.45
70684;BME280;58263;48.146;11.440;2022-09-28T05:35:50;93857.16;;;8.80;79.77
70684;BME280;58263;48.146;11.440;2022-09-28T05:38:15;93841.66;;;8.77;79.33
70684;BME280;58263;48.146;11.440;2022-09-28T05:40:41;93840.34;;;8.79;79.03
70684;BME280;58263;48.146;11.440;2022-09-28T05:43:06;93845.69;;;8.74;79.39
70684;BME280;58263;48.146;11.440;2022-09-28T05:45:31;93839.53;;;8.79;79.47
70684;BME280;58263;48.146;11.440;2022-09-28T05:47:56;93820.00;;;8.68;79.39
70684;BME280;58263;48.146;11.440;2022-09-28T05:50:22;93828.00;;;8.68;79.31
70684;BME280;58263;48.146;11.440;2022-09-28T05:52:59;93825.91;;;8.70;79.13
70684;BME280;58263;48.146;11.440;2022-09-28T05:55:25;93819.22;;;8.73;79.39
70684;BME280;58263;48.146;11.440;2022-09-28T05:57:50;93811.19;;;8.73;79.20
70684;BME280;58263;48.146;11.440;2022-09-28T06:00:15;93816.00;;;8.81;79.37
70684;BME280;58263;48.146;11.440;2022-09-28T06:02:41;93803.69;;;8.70;79.92
70684;BME280;58263;48.146;11.440;2022-09-28T06:05:06;93810.38;;;8.77;80.37
70684;BME280;58263;48.146;11.440;2022-09-28T06:07:31;93803.72;;;8.80;79.82
70684;BME280;58263;48.146;11.440;2022-09-28T06:09:57;93801.84;;;8.65;79.93
70684;BME280;58263;48.146;11.440;2022-09-28T06:12:23;93797.56;;;8.69;80.14
70684;BME280;58263;48.146;11.440;2022-09-28T06:14:49;93810.38;;;8.77;80.37
70684;BME280;58263;48.146;11.440;2022-09-28T06:17:15;93803.44;;;8.76;80.62
70684;BME280;58263;48.146;11.440;2022-09-28T06:19:40;93805.03;;;8.77;80.20
70684;BME280;58263;48.146;11.440;2022-09-28T06:22:05;93800.75;;;8.82;80.46
70684;BME280;58263;48.146;11.440;2022-09-28T06:24:31;93811.19;;;8.78;80.02
70684;BME280;58263;48.146;11.440;2022-09-28T06:26:56;93802.63;;;8.76;80.43
70684;BME280;58263;48.146;11.440;2022-09-28T06:29:21;93802.38;;;8.77;80.02
70684;BME280;58263;48.146;11.440;2022-09-28T06:31:47;93801.84;;;8.86;80.02
70684;BME280;58263;48.146;11.440;2022-09-28T06:34:12;93796.47;;;8.80;79.86
70684;BME280;58263;48.146;11.440;2022-09-28T06:36:38;93806.91;;;8.77;80.01
70684;BME280;58263;48.146;11.440;2022-09-28T06:39:04;93803.72;;;8.85;80.88
70684;BME280;58263;48.146;11.440;2022-09-28T06:41:29;93811.19;;;8.88;80.17
70684;BME280;58263;48.146;11.440;2022-09-28T06:43:55;93812.53;;;8.96;80.62
70684;BME280;58263;48.146;11.440;2022-09-28T06:46:20;93809.59;;;8.98;79.39
70684;BME280;58263;48.146;11.440;2022-09-28T06:48:46;93802.63;;;8.96;79.90
70684;BME280;58263;48.146;11.440;2022-09-28T06:51:11;93804.50;;;9.01;79.27
70684;BME280;58263;48.146;11.440;2022-09-28T06:53:37;93795.16;;;8.99;79.31
70684;BME280;58263;48.146;11.440;2022-09-28T06:56:02;93791.94;;;8.96;79.80
70684;BME280;58263;48.146;11.440;2022-09-28T06:58:29;93798.63;;;8.99;79.54
70684;BME280;58263;48.146;11.440;2022-09-28T07:00:56;93805.03;;;9.08;79.28
70684;BME280;58263;48.146;11.440;2022-09-28T07:03:23;93799.69;;;9.08;79.17
70684;BME280;58263;48.146;11.440;2022-09-28T07:05:53;93805.84;;;8.93;79.75
70684;BME280;58263;48.146;11.440;2022-09-28T07:08:21;93816.81;;;9.12;80.07
70684;BME280;58263;48.146;11.440;2022-09-28T07:10:49;93811.44;;;9.18;79.11
70684;BME280;58263;48.146;11.440;2022-09-28T07:13:20;93821.56;;;9.31;80.12
70684;BME280;58263;48.146;11.440;2022-09-28T07:15:45;93830.16;;;9.28;79.71
70684;BME280;58263;48.146;11.440;2022-09-28T07:18:11;93839.50;;;9.30;79.07
70684;BME280;58263;48.146;11.440;2022-09-28T07:20:37;93823.72;;;9.24;79.58
70684;BME280;58263;48.146;11.440;2022-09-28T07:23:04;93825.06;;;9.37;79.55
70684;BME280;58263;48.146;11.440;2022-09-28T07:25:30;93823.72;;;9.34;79.91
70684;BME280;58263;48.146;11.440;2022-09-28T07:27:58;93834.16;;;9.41;79.40
70684;BME280;58263;48.146;11.440;2022-09-28T07:30:25;93834.94;;;9.31;79.96
70684;BME280;58263;48.146;11.440;2022-09-28T07:32:51;93829.03;;;9.44;80.07
70684;BME280;58263;48.146;11.440;2022-09-28T07:35:17;93838.97;;;9.49;80.08
70684;BME280;58263;48.146;11.440;2022-09-28T07:37:42;93839.22;;;9.47;79.91
70684;BME280;58263;48.146;11.440;2022-09-28T07:40:08;93839.19;;;9.53;79.93
70684;BME280;58263;48.146;11.440;2022-09-28T07:42:52;93830.66;;;9.45;79.54
70684;BME280;58263;48.146;11.440;2022-09-28T07:45:18;93842.16;;;9.46;79.75
70684;BME280;58263;48.146;11.440;2022-09-28T07:47:54;93838.44;;;9.37;79.40
70684;BME280;58263;48.146;11.440;2022-09-28T07:50:20;93840.31;;;9.41;79.11
70684;BME280;58263;48.146;11.440;2022-09-28T07:52:45;93834.41;;;9.44;79.84
70684;BME280;58263;48.146;11.440;2022-09-28T07:55:11;93840.31;;;9.46;80.20
70684;BME280;58263;48.146;11.440;2022-09-28T07:57:36;93847.22;;;9.53;80.03
70684;BME280;58263;48.146;11.440;2022-09-28T08:00:03;93850.97;;;9.62;80.03
70684;BME280;58263;48.146;11.440;2022-09-28T08:02:31;93850.16;;;9.61;79.29
70684;BME280;58263;48.146;11.440;2022-09-28T08:04:59;93853.66;;;9.57;79.94
70684;BME280;58263;48.146;11.440;2022-09-28T08:07:24;93857.38;;;9.66;79.06
70684;BME280;58263;48.146;11.440;2022-09-28T08:09:50;93859.28;;;9.55;79.83
70684;BME280;58263;48.146;11.440;2022-09-28T08:12:15;93868.88;;;9.67;79.91
70684;BME280;58263;48.146;11.440;2022-09-28T08:14:42;93856.59;;;9.66;80.19
70684;BME280;58263;48.146;11.440;2022-09-28T08:17:07;93858.47;;;9.60;79.10
70684;BME280;58263;48.146;11.440;2022-09-28T08:19:34;93856.31;;;9.62;79.66
70684;BME280;58263;48.146;11.440;2022-09-28T08:22:19;93847.72;;;9.70;79.60
70684;BME280;58263;48.146;11.440;2022-09-28T08:24:45;93860.56;;;9.78;79.96
70684;BME280;58263;48.146;11.440;2022-09-28T08:27:11;93872.31;;;9.82;80.06
70684;BME280;58263;48.146;11.440;2022-09-28T08:29:37;93871.25;;;9.89;79.84
70684;BME280;58263;48.146;11.440;2022-09-28T08:32:03;93873.91;;;9.94;79.27
70684;BME280;58263;48.146;11.440;2022-09-28T08:34:30;93873.88;;;9.99;79.83
70684;BME280;58263;48.146;11.440;2022-09-28T08:36:56;93879.22;;;10.04;79.64
70684;BME280;58263;48.146;11.440;2022-09-28T08:39:21;93875.00;;;9.93;79.41
70684;BME280;58263;48.146;11.440;2022-09-28T08:44:45;93884.59;;;9.99;79.54
70684;BME280;58263;48.146;11.440;2022-09-28T08:47:24;93887.03;;;9.95;79.93
70684;BME280;58263;48.146;11.440;2022-09-28T08:50:16;93893.69;;;10.03;79.21
70684;BME280;58263;48.146;11.440;2022-09-28T08:52:47;93894.47;;;10.14;79.80
70684;BME280;58263;48.146;11.440;2022-09-28T08:55:24;93910.22;;;10.26;79.49
70684;BME280;58263;48.146;11.440;2022-09-28T08:57:56;93917.00;;;10.13;79.49
70684;BME280;58263;48.146;11.440;2022-09-28T09:00:32;93941.06;;;10.23;80.36
70684;BME280;58263;48.146;11.440;2022-09-28T09:03:06;93967.84;;;10.23;80.33
70684;BME280;58263;48.146;11.440;2022-09-28T09:06:01;93981.53;;;10.11;79.66
70684;BME280;58263;48.146;11.440;2022-09-28T09:16:44;93984.78;;;9.77;76.79
70684;BME280;58263;48.146;11.440;2022-09-28T09:22:16;93989.91;;;9.74;75.98
70684;BME280;58263;48.146;11.440;2022-09-28T09:27:44;93977.81;;;9.87;78.42
70684;BME280;58263;48.146;11.440;2022-09-28T09:30:17;93967.66;;;9.89;77.13
70684;BME280;58263;48.146;11.440;2022-09-28T09:33:28;93979.16;;;10.00;77.64
70684;BME280;58263;48.146;11.440;2022-09-28T09:36:28;93983.69;;;10.04;76.87
70684;BME280;58263;48.146;11.440;2022-09-28T09:41:46;93992.25;;;10.22;77.68
70684;BME280;58263;48.146;11.440;2022-09-28T09:47:16;94007.22;;;10.28;77.64
70684;BME280;58263;48.146;11.440;2022-09-28T09:49:52;94006.16;;;10.29;78.68
70684;BME280;58263;48.146;11.440;2022-09-28T09:52:24;94017.41;;;10.31;77.98
70684;BME280;58263;48.146;11.440;2022-09-28T09:54:57;94006.97;;;10.24;78.62
70684;BME280;58263;48.146;11.440;2022-09-28T09:57:32;94008.31;;;10.37;78.27
70684;BME280;58263;48.146;11.440;2022-09-28T10:00:01;94009.34;;;10.57;77.43
70684;BME280;58263;48.146;11.440;2022-09-28T10:02:30;94017.13;;;10.48;78.66
70684;BME280;58263;48.146;11.440;2022-09-28T10:05:03;94003.47;;;10.44;76.90
70684;BME280;58263;48.146;11.440;2022-09-28T10:07:59;94011.47;;;10.49;76.69
70684;BME280;58263;48.146;11.440;2022-09-28T10:10:36;94010.41;;;10.61;77.25
70684;BME280;58263;48.146;11.440;2022-09-28T10:13:02;94014.13;;;10.60;76.94
70684;BME280;58263;48.146;11.440;2022-09-28T10:15:30;94016.00;;;10.64;76.72
70684;BME280;58263;48.146;11.440;2022-09-28T10:17:59;94022.69;;;10.72;77.17
70684;BME280;58263;48.146;11.440;2022-09-28T10:20:26;94020.75;;;10.83;76.98
70684;BME280;58263;48.146;11.440;2022-09-28T10:22:56;94031.25;;;10.74;77.61
70684;BME280;58263;48.146;11.440;2022-09-28T10:25:22;94029.59;;;10.83;77.11
70684;BME280;58263;48.146;11.440;2022-09-28T10:27:49;94030.13;;;10.91;78.03
70684;BME280;58263;48.146;11.440;2022-09-28T10:30:21;94033.59;;;10.96;77.19
70684;BME280;58263;48.146;11.440;2022-09-28T10:32:51;94032.16;;;11.09;77.65
70684;BME280;58263;48.146;11.440;2022-09-28T10:38:06;94041.81;;;11.15;75.62
70684;BME280;58263;48.146;11.440;2022-09-28T10:40:42;94042.78;;;11.35;75.17
70684;BME280;58263;48.146;11.440;2022-09-28T10:43:31;94044.09;;;11.38;76.41
70684;BME280;58263;48.146;11.440;2022-09-28T10:46:20;94042.56;;;11.26;75.17
70684;BME280;58263;48.146;11.440;2022-09-28T10:49:13;94048.41;;;11.33;75.29
70684;BME280;58263;48.146;11.440;2022-09-28T10:51:48;94048.38;;;11.44;75.58
70684;BME280;58263;48.146;11.440;2022-09-28T10:54:30;94046.53;;;11.34;75.50
70684;BME280;58263;48.146;11.440;2022-09-28T10:56:57;94046.25;;;11.36;75.17
70684;BME280;58263;48.146;11.440;2022-09-28T10:59:33;94039.47;;;11.48;74.35
70684;BME280;58263;48.146;11.440;2022-09-28T11:02:08;94037.84;;;11.53;75.42
70684;BME280;58263;48.146;11.440;2022-09-28T11:04:42;94035.63;;;11.60;74.76
70684;BME280;58263;48.146;11.440;2022-09-28T11:07:28;94027.06;;;11.92;74.93
70684;BME280;58263;48.146;11.440;2022-09-28T11:09:58;94034.50;;;11.71;74.25
70684;BME280;58263;48.146;11.440;2022-09-28T11:12:28;94044.41;;;11.71;75.32
70684;BME280;58263;48.146;11.440;2022-09-28T11:15:03;94031.97;;;11.45;72.45
70684;BME280;58263;48.146;11.440;2022-09-28T11:17:36;94037.28;;;11.56;73.26
70684;BME280;58263;48.146;11.440;2022-09-28T11:22:51;94056.00;;;11.66;74.25
70684;BME280;58263;48.146;11.440;2022-09-28T11:32:51;94055.84;;;11.52;73.97
70684;BME280;58263;48.146;11.440;2022-09-28T11:35:24;94055.50;;;11.59;74.74
70684;BME280;58263;48.146;11.440;2022-09-28T11:40:53;94044.53;;;11.95;73.73
70684;BME280;58263;48.146;11.440;2022-09-28T11:46:01;94037.38;;;12.14;72.60
70684;BME280;58263;48.146;11.440;2022-09-28T11:48:39;94042.25;;;12.12;72.62
70684;BME280;58263;48.146;11.440;2022-09-28T11:51:22;94046.94;;;11.96;73.00
70684;BME280;58263;48.146;11.440;2022-09-28T11:54:01;94062.78;;;11.98;73.22
70684;BME280;58263;48.146;11.440;2022-09-28T11:56:43;94061.75;;;11.89;74.42
70684;BME280;58263;48.146;11.440;2022-09-28T11:59:14;94066.66;;;11.81;72.62
70684;BME280;58263;48.146;11.440;2022-09-28T12:01:52;94070.94;;;11.82;74.27
70684;BME280;58263;48.146;11.440;2022-09-28T12:07:22;94060.34;;;11.62;75.16
70684;BME280;58263;48.146;11.440;2022-09-28T12:09:49;94052.03;;;11.58;73.50
70684;BME280;58263;48.146;11.440;2022-09-28T12:12:25;94066.16;;;11.74;75.76
70684;BME280;58263;48.146;11.440;2022-09-28T12:14:56;94057.84;;;11.71;75.75
70684;BME280;58263;48.146;11.440;2022-09-28T12:17:33;94054.09;;;11.72;74.51
70684;BME280;58263;48.146;11.440;2022-09-28T12:20:13;94058.09;;;11.74;73.67
70684;BME280;58263;48.146;11.440;2022-09-28T12:22:49;94077.50;;;11.66;76.05
70684;BME280;58263;48.146;11.440;2022-09-28T12:25:33;94052.31;;;11.57;75.42
70684;BME280;58263;48.146;11.440;2022-09-28T12:28:25;94061.16;;;11.57;74.79
70684;BME280;58263;48.146;11.440;2022-09-28T12:30:56;94059.81;;;11.60;75.52
70684;BME280;58263;48.146;11.440;2022-09-28T12:33:24;94062.50;;;11.60;74.67
70684;BME280;58263;48.146;11.440;2022-09-28T12:44:27;94066.31;;;11.48;76.45
70684;BME280;58263;48.146;11.440;2022-09-28T12:50:05;94051.75;;;11.60;75.68
70684;BME280;58263;48.146;11.440;2022-09-28T12:55:41;94070.81;;;11.58;75.67
70684;BME280;58263;48.146;11.440;2022-09-28T13:03:43;94070.97;;;11.32;74.91
70684;BME280;58263;48.146;11.440;2022-09-28T13:09:23;94070.78;;;11.19;72.24
70684;BME280;58263;48.146;11.440;2022-09-28T13:17:50;94088.53;;;11.04;73.43
70684;BME280;58263;48.146;11.440;2022-09-28T13:23:28;94064.38;;;11.09;73.94
70684;BME280;58263;48.146;11.440;2022-09-28T13:26:06;94063.03;;;11.07;73.67
70684;BME280;58263;48.146;11.440;2022-09-28T13:28:35;94056.31;;;11.14;72.94
70684;BME280;58263;48.146;11.440;2022-09-28T13:31:02;94060.06;;;11.13;72.12
70684;BME280;58263;48.146;11.440;2022-09-28T13:33:37;94057.13;;;11.10;74.34
70684;BME280;58263;48.146;11.440;2022-09-28T13:38:58;94052.59;;;11.05;73.39
70684;BME280;58263;48.146;11.440;2022-09-28T13:41:32;94060.06;;;11.08;73.02
70684;BME280;58263;48.146;11.440;2022-09-28T13:52:49;94079.97;;;11.07;75.21
70684;BME280;58263;48.146;11.440;2022-09-28T13:58:02;94074.03;;;11.05;74.64
70684;BME280;58263;48.146;11.440;2022-09-28T14:03:03;94078.91;;;11.03;73.83
70684;BME280;58263;48.146;11.440;2022-09-28T14:16:33;94078.91;;;10.98;74.62
70684;BME280;58263;48.146;11.440;2022-09-28T14:19:00;94074.59;;;11.02;74.78
70684;BME280;58263;48.146;11.440;2022-09-28T14:29:31;94065.28;;;10.79;74.46
70684;BME280;58263;48.146;11.440;2022-09-28T14:34:41;94072.00;;;10.76;74.35
70684;BME280;58263;48.146;11.440;2022-09-28T14:37:27;94067.69;;;10.80;74.94
70684;BME280;58263;48.146;11.440;2022-09-28T14:40:28;94065.88;;;10.71;75.00
70684;BME280;58263;48.146;11.440;2022-09-28T14:45:49;94068.84;;;10.59;74.83
70684;BME280;58263;48.146;11.440;2022-09-28T14:48:21;94077.94;;;10.63;75.42
70684;BME280;58263;48.146;11.440;2022-09-28T14:54:39;94071.50;;;10.59;76.80
70684;BME280;58263;48.146;11.440;2022-09-28T14:59:22;94076.88;;;10.64;76.72
70684;BME280;58263;48.146;11.440;2022-09-28T15:01:56;94077.38;;;10.66;76.05
70684;BME280;58263;48.146;11.440;2022-09-28T15:04:28;94075.25;;;10.68;75.57
70684;BME280;58263;48.146;11.440;2022-09-28T15:06:53;94067.22;;;10.63;75.15
70684;BME280;58263;48.146;11.440;2022-09-28T15:12:04;94076.31;;;10.62;75.41
70684;BME280;58263;48.146;11.440;2022-09-28T15:14:34;94088.94;;;10.67;75.79
70684;BME280;58263;48.146;11.440;2022-09-28T15:17:07;94078.50;;;10.55;76.55
70684;BME280;58263;48.146;11.440;2022-09-28T15:20:14;94077.44;;;10.51;76.34
70684;BME280;58263;48.146;11.440;2022-09-28T15:22:46;94072.63;;;10.53;75.88
70684;BME280;58263;48.146;11.440;2022-09-28T15:25:14;94079.56;;;10.54;74.93
70684;BME280;58263;48.146;11.440;2022-09-28T15:27:40;94086.53;;;10.34;74.26
70684;BME280;58263;48.146;11.440;2022-09-28T15:30:28;94093.00;;;10.38;75.61
70684;BME280;58263;48.146;11.440;2022-09-28T15:32:55;94095.66;;;10.33;75.93
70684;BME280;58263;48.146;11.440;2022-09-28T15:35:41;94096.19;;;10.20;75.79
70684;BME280;58263;48.146;11.440;2022-09-28T15:38:13;94098.63;;;10.16;76.78
70684;BME280;58263;48.146;11.440;2022-09-28T15:40:41;94101.03;;;10.18;77.09
70684;BME280;58263;48.146;11.440;2022-09-28T15:43:25;94097.28;;;10.19;77.25
70684;BME280;58263;48.146;11.440;2022-09-28T15:46:13;94102.63;;;10.13;78.47
70684;BME280;58263;48.146;11.440;2022-09-28T15:49:23;94111.47;;;10.19;77.71
70684;BME280;58263;48.146;11.440;2022-09-28T15:51:51;94112.28;;;10.14;79.17